ロンドン/ヒースロー の空港の天気 - METARとTAF

ロンドン・ヒースロー空港 ( EGLL / LHR ) - イギリス ロンドン
飛行場実況気象(Metar)
観測時間06/20 00:50 BST (06/19 23:50 UTC)
風向・風速西南西 3m/s
視程10km以上
天気現象弱い雨
全天の8割程度の雲 雲底高度 1160m
気温16℃
湿度94%
気圧1010hPa
METAREGLL 192350Z AUTO 25005KT 9999 -RA BKN038 16/15 Q1010 NOSIG
過去の天気等 Google飛行場航空写真 Wunderground天気予報

過去48時間のMETAR

飛行場予報(TAF)
発表時間: 6/19 23:50 BST (6/19 22:50 UTC)
予報対象時間: 20日1時 BST ~ 21日7時 BST
風向・風速西 3m/s
視程10km以上
全天の4割程度の雲 雲底高度 910m
20日11時 BST ~ 20日19時 BST に 確率 40% で一時的に
視程6000m
天気現象しゅう雨
TAF EGLL 192250Z 2000/2106 26006KT 9999 SCT030
PROB40 TEMPO 2010/2018 6000 SHRA